createdAt,value
2018-03-20T00:14:01.906Z,98006.20
2018-03-20T00:34:46.922Z,98018.29
2018-03-20T00:55:22.811Z,98028.19
2018-03-20T01:15:56.558Z,98024.78
2018-03-20T01:54:30.581Z,98016.56
2018-03-20T02:15:04.459Z,98011.84
2018-03-20T02:35:38.169Z,98023.33
2018-03-20T02:56:13.472Z,98035.55
2018-03-20T03:16:47.205Z,98064.14
2018-03-20T03:37:22.472Z,98083.41
2018-03-20T03:57:58.929Z,98106.82
2018-03-20T04:18:31.792Z,98112.09
2018-03-20T04:39:06.133Z,98138.27
2018-03-20T04:59:41.409Z,98146.38
2018-03-20T05:20:36.342Z,98171.38
2018-03-20T05:41:08.848Z,98191.94
2018-03-20T06:01:44.449Z,98199.31
2018-03-20T06:22:21.240Z,98196.57
2018-03-20T06:42:54.907Z,98224.61
2018-03-20T07:03:29.934Z,98227.50
2018-03-20T07:24:06.128Z,98228.89
2018-03-20T07:44:40.598Z,98213.03
2018-03-20T08:05:16.839Z,98220.22
2018-03-20T08:25:51.257Z,98230.88
2018-03-20T08:46:23.292Z,98251.86
2018-03-20T09:06:58.190Z,98267.56
2018-03-20T09:27:35.737Z,98262.55
2018-03-20T09:48:09.013Z,98272.29
2018-03-20T10:08:44.003Z,98288.41
2018-03-20T10:29:21.119Z,98285.80
2018-03-20T10:49:56.392Z,98310.61
2018-03-20T11:10:30.150Z,98336.37
2018-03-20T11:31:03.866Z,98361.66
2018-03-20T11:51:40.050Z,98373.00
2018-03-20T12:12:14.101Z,98406.28
2018-03-20T12:32:48.448Z,98421.00
2018-03-20T12:53:31.399Z,98448.30
2018-03-20T13:14:06.307Z,98466.19
2018-03-20T13:34:38.549Z,98462.30
2018-03-20T13:55:10.704Z,98456.48
2018-03-20T14:15:44.495Z,98478.05
2018-03-20T14:36:10.207Z,98498.41
2018-03-20T14:56:43.985Z,98496.39
2018-03-20T15:17:19.498Z,98495.04
2018-03-20T15:37:53.297Z,98506.87
2018-03-20T15:58:28.569Z,98529.30
2018-03-20T16:18:59.849Z,98558.36
2018-03-20T16:39:36.382Z,98594.91
2018-03-20T17:00:10.394Z,98637.16
2018-03-20T17:20:45.663Z,98674.77
2018-03-20T17:41:21.059Z,98717.38
2018-03-20T18:01:54.053Z,98757.25
2018-03-20T18:22:27.179Z,98802.89
2018-03-20T18:43:02.448Z,98848.45
2018-03-20T19:03:35.572Z,98879.88
2018-03-20T19:24:10.140Z,98912.38
2018-03-20T19:44:42.122Z,98943.48
2018-03-20T20:05:16.474Z,98981.55
2018-03-20T20:25:51.132Z,99013.65
2018-03-20T20:46:22.721Z,99049.71
2018-03-20T21:06:54.931Z,99068.97
2018-03-20T21:27:30.410Z,99082.91
2018-03-20T21:48:05.468Z,99079.61
2018-03-20T22:08:41.652Z,99091.81
2018-03-20T22:29:14.140Z,99113.73
2018-03-20T22:49:47.933Z,99124.39
2018-03-20T23:10:24.543Z,99144.23
2018-03-20T23:30:58.749Z,99153.72
2018-03-20T23:51:30.958Z,99162.96
